Time;durP1;ratioP1;P1;durP2;ratioP2;P2;SDS_P1;SDS_P2;PMS_P1;PMS_P2;Temp;Humidity;BMP_temperature;BMP_pressure;BME280_temperature;BME280_humidity;BME280_pressure;Samples;Min_cycle;Max_cycle;Signal;HPM_P1;HPM_P2
2022/03/01 00:00:31;;;;;;;14.13;6.00;;;;;;;;;;5088025;28;20135;-75
2022/03/01 00:03:07;;;;;;;14.52;5.63;;;;;;;;;;5082511;28;20086;-77
2022/03/01 00:05:33;;;;;;;13.57;5.25;;;;;;;;;;5080145;28;20063;-77
2022/03/01 00:08:00;;;;;;;15.05;6.05;;;;;;;;;;5079885;28;20480;-75
2022/03/01 00:10:25;;;;;;;15.85;5.65;;;;;;;;;;5081975;28;20051;-78
2022/03/01 00:12:52;;;;;;;9.23;5.25;;;;;;;;;;5079587;28;20059;-77
2022/03/01 00:15:18;;;;;;;12.30;5.25;;;;;;;;;;5079323;28;20048;-82
2022/03/01 00:17:44;;;;;;;12.57;5.53;;;;;;;;;;5077357;28;20055;-78
2022/03/01 00:20:11;;;;;;;14.98;4.97;;;;;;;;;;5084390;28;20060;-80
2022/03/01 00:22:37;;;;;;;13.23;5.63;;;;;;;;;;5085289;28;20066;-76
2022/03/01 00:25:04;;;;;;;12.32;5.53;;;;;;;;;;5082980;28;20166;-77
2022/03/01 00:27:30;;;;;;;15.75;5.18;;;;;;;;;;5076558;28;20827;-80
2022/03/01 00:29:56;;;;;;;14.68;5.57;;;;;;;;;;5081544;28;20066;-79
2022/03/01 00:32:22;;;;;;;13.90;4.82;;;;;;;;;;5081302;28;20776;-80
2022/03/01 00:34:48;;;;;;;14.63;5.20;;;;;;;;;;5079495;28;20047;-80
2022/03/01 00:37:14;;;;;;;11.52;5.45;;;;;;;;;;5076298;27;20054;-76
2022/03/01 00:39:39;;;;;;;12.38;5.50;;;;;;;;;;5077135;28;20061;-79
2022/03/01 00:42:06;;;;;;;12.98;5.97;;;;;;;;;;5080098;28;20337;-77
2022/03/01 00:44:32;;;;;;;16.50;5.18;;;;;;;;;;5083293;28;20584;-80
2022/03/01 00:46:58;;;;;;;13.55;4.97;;;;;;;;;;5075716;28;20075;-80
2022/03/01 00:49:24;;;;;;;12.98;5.55;;;;;;;;;;5080268;28;20086;-76
2022/03/01 00:51:50;;;;;;;9.75;5.00;;;;;;;;;;5079170;28;20475;-79
2022/03/01 00:54:16;;;;;;;13.60;4.72;;;;;;;;;;5091263;28;20035;-76
2022/03/01 00:56:42;;;;;;;9.38;5.25;;;;;;;;;;5089555;28;20169;-79
2022/03/01 00:59:08;;;;;;;15.35;4.82;;;;;;;;;;5082891;28;20061;-75
2022/03/01 01:01:34;;;;;;;9.45;4.95;;;;;;;;;;5080230;28;20047;-76
2022/03/01 01:04:00;;;;;;;8.68;4.78;;;;;;;;;;5079895;28;20084;-77
2022/03/01 01:06:26;;;;;;;17.90;5.07;;;;;;;;;;5073901;28;20107;-79
2022/03/01 01:08:52;;;;;;;13.65;4.90;;;;;;;;;;5083388;27;20059;-80
2022/03/01 01:11:18;;;;;;;11.20;4.85;;;;;;;;;;5080404;28;20068;-78
2022/03/01 01:13:45;;;;;;;9.00;4.55;;;;;;;;;;5082076;28;20556;-75
2022/03/01 01:16:10;;;;;;;11.50;4.68;;;;;;;;;;5075261;28;20056;-78
2022/03/01 01:18:38;;;;;;;12.10;4.80;;;;;;;;;;5083432;27;20971;-75
2022/03/01 01:21:04;;;;;;;11.07;4.65;;;;;;;;;;5081980;28;20047;-75
2022/03/01 01:23:30;;;;;;;10.43;4.60;;;;;;;;;;5077880;28;20055;-76
2022/03/01 01:25:56;;;;;;;13.55;4.80;;;;;;;;;;5075715;28;20603;-77
2022/03/01 01:28:22;;;;;;;11.35;4.82;;;;;;;;;;5079111;28;20050;-81
2022/03/01 01:30:47;;;;;;;12.35;5.25;;;;;;;;;;5080364;28;20264;-79
2022/03/01 01:33:13;;;;;;;13.43;5.10;;;;;;;;;;5079962;28;20058;-76
2022/03/01 01:35:39;;;;;;;11.52;4.63;;;;;;;;;;5075201;28;20052;-77
2022/03/01 01:38:05;;;;;;;12.88;4.90;;;;;;;;;;5075395;28;20424;-77
2022/03/01 01:40:33;;;;;;;11.45;4.72;;;;;;;;;;5078683;28;21300;-75
2022/03/01 01:43:00;;;;;;;13.65;5.25;;;;;;;;;;5079700;28;20129;-80
2022/03/01 01:45:27;;;;;;;12.48;4.90;;;;;;;;;;5077782;28;20051;-78
2022/03/01 01:47:54;;;;;;;11.48;4.82;;;;;;;;;;5076213;28;20059;-76
2022/03/01 01:50:21;;;;;;;8.80;4.55;;;;;;;;;;5077982;28;20612;-78
2022/03/01 01:52:49;;;;;;;8.90;5.07;;;;;;;;;;5076580;28;20112;-79
2022/03/01 01:55:17;;;;;;;14.00;5.10;;;;;;;;;;5080166;28;20044;-75
2022/03/01 01:57:43;;;;;;;8.23;4.65;;;;;;;;;;5075518;28;20077;-75
2022/03/01 02:00:10;;;;;;;15.32;5.63;;;;;;;;;;5081818;28;20459;-76
2022/03/01 02:02:37;;;;;;;11.05;4.47;;;;;;;;;;5082192;28;20062;-76
2022/03/01 02:05:03;;;;;;;14.65;4.82;;;;;;;;;;5081547;28;20097;-76
2022/03/01 02:07:29;;;;;;;12.10;4.88;;;;;;;;;;5077486;28;21748;-76
2022/03/01 02:09:55;;;;;;;11.10;5.13;;;;;;;;;;5078972;28;20070;-78
2022/03/01 02:12:21;;;;;;;12.13;5.35;;;;;;;;;;5077665;28;20496;-73
2022/03/01 02:14:48;;;;;;;13.38;4.88;;;;;;;;;;5080289;28;20059;-75
2022/03/01 02:17:15;;;;;;;9.55;5.15;;;;;;;;;;5077173;28;20054;-76
2022/03/01 02:19:53;;;;;;;14.13;6.15;;;;;;;;;;5081484;28;20044;-76
2022/03/01 02:22:19;;;;;;;8.73;5.50;;;;;;;;;;5078656;28;20039;-79
2022/03/01 02:24:45;;;;;;;13.18;6.03;;;;;;;;;;5078270;28;20062;-76
2022/03/01 02:27:11;;;;;;;11.98;5.72;;;;;;;;;;5079354;28;20100;-76
2022/03/01 02:29:37;;;;;;;14.52;6.20;;;;;;;;;;5085613;28;20066;-76
2022/03/01 02:32:07;;;;;;;12.45;5.78;;;;;;;;;;5083621;28;20060;-75
2022/03/01 02:34:33;;;;;;;14.07;5.75;;;;;;;;;;5083449;28;20048;-75
2022/03/01 02:36:59;;;;;;;15.32;5.32;;;;;;;;;;5079022;28;20062;-79
2022/03/01 02:39:25;;;;;;;10.18;5.07;;;;;;;;;;5084111;27;20047;-79
2022/03/01 02:41:51;;;;;;;12.75;5.63;;;;;;;;;;5084165;28;20044;-75
2022/03/01 02:44:17;;;;;;;11.98;5.53;;;;;;;;;;5083246;28;20046;-76
2022/03/01 02:46:43;;;;;;;13.50;5.35;;;;;;;;;;5077754;28;20409;-77
2022/03/01 02:49:09;;;;;;;11.68;5.43;;;;;;;;;;5085232;28;20055;-75
2022/03/01 02:51:36;;;;;;;14.57;5.55;;;;;;;;;;5083824;28;20040;-74
2022/03/01 02:54:03;;;;;;;12.55;5.28;;;;;;;;;;5079566;28;20117;-76
2022/03/01 02:56:29;;;;;;;14.27;5.13;;;;;;;;;;5076333;28;20081;-78
2022/03/01 02:58:55;;;;;;;13.48;4.78;;;;;;;;;;5080355;28;20051;-76
2022/03/01 03:01:24;;;;;;;14.38;5.07;;;;;;;;;;5081117;28;20043;-78
2022/03/01 03:03:50;;;;;;;17.92;4.88;;;;;;;;;;5081585;28;20051;-78
2022/03/01 03:06:19;;;;;;;11.57;5.07;;;;;;;;;;5075794;28;20083;-77
2022/03/01 03:08:46;;;;;;;9.10;4.50;;;;;;;;;;5085603;28;20057;-75
2022/03/01 03:11:12;;;;;;;15.05;4.68;;;;;;;;;;5084424;28;20520;-78
2022/03/01 03:13:39;;;;;;;14.25;4.93;;;;;;;;;;5083034;28;20113;-76
2022/03/01 03:16:07;;;;;;;12.50;5.45;;;;;;;;;;5078883;28;20051;-79
2022/03/01 03:18:34;;;;;;;15.52;4.68;;;;;;;;;;5086545;28;20511;-80
2022/03/01 03:21:01;;;;;;;13.00;4.68;;;;;;;;;;5083315;28;20131;-80
2022/03/01 03:23:26;;;;;;;12.95;5.75;;;;;;;;;;5091481;28;20047;-76
2022/03/01 03:25:52;;;;;;;9.70;5.10;;;;;;;;;;5082229;27;20058;-74
2022/03/01 03:28:18;;;;;;;12.80;4.95;;;;;;;;;;5078911;28;20082;-75
2022/03/01 03:30:44;;;;;;;11.90;4.72;;;;;;;;;;5084529;28;20043;-76
2022/03/01 03:33:10;;;;;;;12.27;4.90;;;;;;;;;;5086467;28;20048;-76
2022/03/01 03:35:36;;;;;;;14.43;4.60;;;;;;;;;;5084746;28;20058;-77
2022/03/01 03:38:03;;;;;;;14.73;5.60;;;;;;;;;;5085129;28;20676;-76
2022/03/01 03:40:29;;;;;;;14.52;5.18;;;;;;;;;;5094824;28;20767;-76
2022/03/01 03:42:55;;;;;;;10.75;4.50;;;;;;;;;;5091911;28;20091;-75
2022/03/01 03:45:22;;;;;;;9.55;5.05;;;;;;;;;;5090881;28;20043;-74
2022/03/01 03:47:49;;;;;;;11.60;4.88;;;;;;;;;;5081669;28;20051;-77
2022/03/01 03:50:15;;;;;;;10.20;4.95;;;;;;;;;;5085167;28;20075;-76
2022/03/01 03:52:41;;;;;;;11.48;4.43;;;;;;;;;;5087088;28;20389;-75
2022/03/01 03:55:09;;;;;;;11.80;4.20;;;;;;;;;;5087652;28;20051;-76
2022/03/01 03:57:35;;;;;;;13.27;5.40;;;;;;;;;;5083243;28;20060;-74
2022/03/01 04:00:06;;;;;;;10.60;5.00;;;;;;;;;;5085664;28;20043;-79
2022/03/01 04:02:32;;;;;;;13.23;5.05;;;;;;;;;;5086232;28;20081;-78
2022/03/01 04:04:58;;;;;;;15.10;4.90;;;;;;;;;;5083787;28;20563;-83
2022/03/01 04:07:24;;;;;;;11.98;5.00;;;;;;;;;;5079106;27;20512;-78
2022/03/01 04:09:51;;;;;;;11.73;5.35;;;;;;;;;;5084387;28;20066;-79
2022/03/01 04:12:18;;;;;;;11.73;5.22;;;;;;;;;;5085702;28;20055;-78
2022/03/01 04:14:43;;;;;;;13.30;5.70;;;;;;;;;;5087380;28;20386;-76
2022/03/01 04:17:10;;;;;;;10.63;5.18;;;;;;;;;;5082561;28;20039;-75
2022/03/01 04:19:36;;;;;;;15.52;5.45;;;;;;;;;;5087345;28;20127;-75
2022/03/01 04:22:03;;;;;;;15.93;5.25;;;;;;;;;;5087546;28;20054;-74
2022/03/01 04:24:28;;;;;;;11.65;5.18;;;;;;;;;;5084980;28;20152;-77
2022/03/01 04:26:54;;;;;;;10.23;5.15;;;;;;;;;;5079827;28;20549;-77
2022/03/01 04:29:20;;;;;;;15.93;5.70;;;;;;;;;;5083812;28;20048;-80
2022/03/01 04:31:46;;;;;;;11.90;5.35;;;;;;;;;;5082733;28;20043;-75
2022/03/01 04:34:12;;;;;;;10.63;4.88;;;;;;;;;;5084627;28;20729;-77
2022/03/01 04:36:38;;;;;;;11.25;5.00;;;;;;;;;;5078784;28;20052;-77
2022/03/01 04:39:04;;;;;;;10.93;5.15;;;;;;;;;;5084572;28;20166;-77
2022/03/01 04:41:30;;;;;;;10.20;4.70;;;;;;;;;;5083889;28;20949;-76
2022/03/01 04:43:56;;;;;;;16.38;5.22;;;;;;;;;;5081958;28;20378;-81
2022/03/01 04:46:22;;;;;;;11.43;5.05;;;;;;;;;;5078110;28;20491;-76
2022/03/01 04:48:48;;;;;;;8.65;4.63;;;;;;;;;;5082520;27;20058;-76
2022/03/01 04:51:14;;;;;;;11.95;5.07;;;;;;;;;;5080619;28;20043;-74
2022/03/01 04:53:40;;;;;;;6.75;4.18;;;;;;;;;;5083947;28;20128;-74
2022/03/01 04:56:07;;;;;;;12.82;4.47;;;;;;;;;;5080863;28;21527;-78
2022/03/01 04:58:33;;;;;;;10.55;4.35;;;;;;;;;;5085734;27;21384;-80
2022/03/01 05:01:01;;;;;;;12.18;4.65;;;;;;;;;;5084584;28;20588;-78
2022/03/01 05:03:27;;;;;;;12.32;4.60;;;;;;;;;;5083822;28;20070;-76
2022/03/01 05:05:53;;;;;;;9.55;4.05;;;;;;;;;;5077629;28;20063;-78
2022/03/01 05:08:19;;;;;;;10.85;4.53;;;;;;;;;;5080382;28;20429;-76
2022/03/01 05:10:45;;;;;;;10.55;4.35;;;;;;;;;;5079218;28;20046;-77
2022/03/01 05:13:10;;;;;;;14.88;5.30;;;;;;;;;;5084062;28;20496;-80
2022/03/01 05:15:36;;;;;;;9.52;4.30;;;;;;;;;;5079462;28;21384;-77
2022/03/01 05:18:03;;;;;;;14.73;4.18;;;;;;;;;;5078617;28;20193;-78
2022/03/01 05:20:29;;;;;;;16.35;4.45;;;;;;;;;;5080097;28;20086;-82
2022/03/01 05:22:55;;;;;;;13.13;4.60;;;;;;;;;;5079547;28;20070;-76
2022/03/01 05:25:23;;;;;;;8.35;4.40;;;;;;;;;;5077230;28;20052;-80
2022/03/01 05:27:50;;;;;;;13.27;4.10;;;;;;;;;;5077708;28;21049;-75
2022/03/01 05:30:18;;;;;;;13.25;3.63;;;;;;;;;;5081753;28;20051;-76
2022/03/01 05:32:46;;;;;;;9.25;4.55;;;;;;;;;;5081602;28;20039;-76
2022/03/01 05:35:14;;;;;;;14.40;4.15;;;;;;;;;;5078778;28;20040;-75
2022/03/01 05:37:42;;;;;;;11.63;4.30;;;;;;;;;;5076837;28;20452;-77
2022/03/01 05:40:09;;;;;;;9.25;4.25;;;;;;;;;;5083188;28;20059;-79
2022/03/01 05:42:35;;;;;;;15.40;4.57;;;;;;;;;;5081891;28;20166;-75
2022/03/01 05:45:02;;;;;;;9.25;4.60;;;;;;;;;;5079249;28;20055;-75
2022/03/01 05:47:28;;;;;;;11.70;4.22;;;;;;;;;;5075511;28;20073;-81
2022/03/01 05:49:54;;;;;;;13.55;4.80;;;;;;;;;;5077758;28;20056;-77
2022/03/01 05:52:21;;;;;;;15.40;4.07;;;;;;;;;;5080934;28;20047;-76
2022/03/01 05:54:47;;;;;;;13.55;4.60;;;;;;;;;;5076283;28;20493;-78
2022/03/01 05:57:13;;;;;;;12.68;4.63;;;;;;;;;;5073938;28;20050;-77
2022/03/01 05:59:39;;;;;;;13.20;5.00;;;;;;;;;;5077555;28;20048;-79
2022/03/01 06:02:05;;;;;;;13.45;4.10;;;;;;;;;;5077935;28;20044;-78
2022/03/01 06:04:31;;;;;;;8.02;4.30;;;;;;;;;;5080383;28;20104;-78
2022/03/01 06:06:57;;;;;;;11.25;4.40;;;;;;;;;;5071988;28;20497;-82
2022/03/01 06:09:23;;;;;;;14.20;4.70;;;;;;;;;;5077839;28;20453;-77
2022/03/01 06:11:49;;;;;;;12.75;4.25;;;;;;;;;;5077959;28;20069;-76
2022/03/01 06:14:16;;;;;;;13.10;4.53;;;;;;;;;;5080780;28;20067;-77
2022/03/01 06:16:44;;;;;;;14.52;4.53;;;;;;;;;;5073883;28;20086;-76
2022/03/01 06:19:10;;;;;;;16.33;4.25;;;;;;;;;;5081117;28;20102;-77
2022/03/01 06:21:36;;;;;;;15.32;4.18;;;;;;;;;;5081857;28;20052;-77
2022/03/01 06:24:04;;;;;;;10.75;4.55;;;;;;;;;;5080396;28;20599;-81
2022/03/01 06:26:30;;;;;;;14.80;4.40;;;;;;;;;;5074344;28;20132;-77
2022/03/01 06:28:56;;;;;;;8.63;3.88;;;;;;;;;;5080364;28;20109;-80
2022/03/01 06:31:22;;;;;;;12.07;4.63;;;;;;;;;;5077736;28;20051;-76
2022/03/01 06:33:48;;;;;;;11.48;4.47;;;;;;;;;;5074873;28;20086;-78
2022/03/01 06:36:14;;;;;;;15.02;4.47;;;;;;;;;;5071974;28;20051;-78
2022/03/01 06:38:40;;;;;;;12.90;4.40;;;;;;;;;;5077424;28;20071;-76
2022/03/01 06:41:06;;;;;;;12.85;4.68;;;;;;;;;;5078979;28;20204;-79
2022/03/01 06:43:32;;;;;;;10.52;4.60;;;;;;;;;;5084307;28;20516;-81
2022/03/01 06:45:58;;;;;;;12.60;4.28;;;;;;;;;;5079052;28;20170;-79
2022/03/01 06:48:24;;;;;;;11.95;4.72;;;;;;;;;;5077958;28;20066;-81
2022/03/01 06:50:50;;;;;;;12.55;5.78;;;;;;;;;;5075670;28;20047;-77
2022/03/01 06:53:17;;;;;;;13.55;4.38;;;;;;;;;;5086178;28;20044;-75
2022/03/01 06:55:43;;;;;;;12.95;4.68;;;;;;;;;;5081422;28;20047;-77
2022/03/01 06:58:11;;;;;;;12.05;4.47;;;;;;;;;;5075249;28;20048;-78
2022/03/01 07:00:37;;;;;;;12.32;5.03;;;;;;;;;;5085552;28;20078;-76
2022/03/01 07:03:03;;;;;;;19.50;5.28;;;;;;;;;;5084959;28;20079;-81
2022/03/01 07:05:29;;;;;;;11.15;4.93;;;;;;;;;;5084771;28;20663;-79
2022/03/01 07:07:55;;;;;;;14.02;4.72;;;;;;;;;;5078489;28;20064;-79
2022/03/01 07:10:22;;;;;;;15.65;5.75;;;;;;;;;;5077388;28;20056;-77
2022/03/01 07:12:47;;;;;;;14.98;5.78;;;;;;;;;;5080099;28;20070;-77
2022/03/01 07:15:14;;;;;;;24.65;7.30;;;;;;;;;;5079472;28;20503;-78
2022/03/01 07:17:40;;;;;;;24.95;7.18;;;;;;;;;;5078253;27;20475;-78
2022/03/01 07:20:07;;;;;;;19.55;7.15;;;;;;;;;;5079581;27;20105;-82
2022/03/01 07:22:33;;;;;;;17.33;6.13;;;;;;;;;;5082211;28;20162;-79
2022/03/01 07:24:59;;;;;;;16.77;5.57;;;;;;;;;;5079258;28;20054;-76
2022/03/01 07:27:25;;;;;;;15.60;6.10;;;;;;;;;;5077048;28;20040;-81
2022/03/01 07:29:51;;;;;;;13.27;6.28;;;;;;;;;;5083299;28;20071;-77
2022/03/01 07:32:17;;;;;;;14.95;6.43;;;;;;;;;;5084111;28;20314;-76
2022/03/01 07:34:43;;;;;;;12.77;6.20;;;;;;;;;;5082030;28;20576;-78
2022/03/01 07:37:09;;;;;;;12.27;6.80;;;;;;;;;;5075489;28;20733;-79
2022/03/01 07:39:35;;;;;;;14.73;6.63;;;;;;;;;;5081548;28;20051;-83
2022/03/01 07:42:01;;;;;;;16.17;6.57;;;;;;;;;;5084267;28;20196;-79
2022/03/01 07:44:27;;;;;;;19.20;6.80;;;;;;;;;;5076187;28;20057;-75
2022/03/01 07:46:53;;;;;;;21.88;8.40;;;;;;;;;;5073165;28;20227;-78
2022/03/01 07:49:19;;;;;;;18.05;8.88;;;;;;;;;;5075029;27;20142;-80
2022/03/01 07:51:45;;;;;;;27.92;7.70;;;;;;;;;;5080543;28;20128;-77
2022/03/01 07:54:10;;;;;;;19.55;7.45;;;;;;;;;;5085628;28;20047;-74
2022/03/01 07:56:36;;;;;;;16.65;7.05;;;;;;;;;;5076597;28;21087;-73
2022/03/01 07:59:03;;;;;;;18.90;7.28;;;;;;;;;;5080340;28;20070;-74
2022/03/01 08:01:29;;;;;;;19.42;7.22;;;;;;;;;;5088018;23;20251;-72
2022/03/01 08:03:55;;;;;;;21.77;7.57;;;;;;;;;;5085167;28;20055;-71
2022/03/01 08:06:21;;;;;;;18.50;7.60;;;;;;;;;;5059360;28;20051;-72
2022/03/01 08:08:47;;;;;;;19.10;7.47;;;;;;;;;;5083155;28;20055;-73
2022/03/01 08:11:12;;;;;;;14.70;7.28;;;;;;;;;;5083358;28;20697;-76
2022/03/01 08:13:38;;;;;;;17.40;7.80;;;;;;;;;;5082981;28;20426;-75
2022/03/01 08:16:05;;;;;;;24.13;8.25;;;;;;;;;;5078272;28;20055;-76
2022/03/01 08:18:32;;;;;;;16.80;6.93;;;;;;;;;;5063864;28;20054;-72
2022/03/01 08:20:58;;;;;;;17.17;7.10;;;;;;;;;;5082165;28;20059;-73
2022/03/01 08:23:25;;;;;;;23.88;7.47;;;;;;;;;;5081537;28;20457;-73
2022/03/01 08:25:51;;;;;;;16.30;7.50;;;;;;;;;;5079798;28;20047;-77
2022/03/01 08:28:17;;;;;;;26.33;7.18;;;;;;;;;;5076406;28;20491;-75
2022/03/01 08:30:43;;;;;;;21.73;7.60;;;;;;;;;;5082062;28;20873;-74
2022/03/01 08:33:09;;;;;;;16.10;5.97;;;;;;;;;;5080351;28;20287;-70
2022/03/01 08:35:36;;;;;;;16.13;6.60;;;;;;;;;;5078043;28;20559;-69
2022/03/01 08:38:04;;;;;;;16.42;6.53;;;;;;;;;;5071341;28;20481;-71
2022/03/01 08:40:32;;;;;;;22.33;6.25;;;;;;;;;;5080093;28;20062;-73
2022/03/01 08:42:58;;;;;;;17.77;5.97;;;;;;;;;;5080486;28;20159;-72
2022/03/01 08:45:24;;;;;;;18.92;6.80;;;;;;;;;;5078883;28;20121;-71
2022/03/01 08:47:51;;;;;;;22.40;7.32;;;;;;;;;;5068840;28;20051;-73
2022/03/01 08:50:17;;;;;;;18.73;6.40;;;;;;;;;;5081147;28;20039;-73
2022/03/01 08:52:43;;;;;;;21.02;6.07;;;;;;;;;;5080000;28;20051;-73
2022/03/01 08:55:09;;;;;;;22.80;7.50;;;;;;;;;;5064807;28;20281;-71
2022/03/01 08:57:36;;;;;;;19.42;7.78;;;;;;;;;;5071762;28;20051;-71
2022/03/01 09:00:04;;;;;;;19.90;7.38;;;;;;;;;;5081880;28;20437;-71
2022/03/01 09:02:30;;;;;;;27.58;10.23;;;;;;;;;;5081481;28;20428;-70
2022/03/01 09:04:56;;;;;;;26.63;9.27;;;;;;;;;;5081624;28;20066;-72
2022/03/01 09:07:23;;;;;;;23.25;9.90;;;;;;;;;;5071505;28;20130;-70
2022/03/01 09:09:49;;;;;;;29.05;9.23;;;;;;;;;;5081005;28;20051;-72
2022/03/01 09:12:15;;;;;;;18.00;9.05;;;;;;;;;;5083136;28;20054;-74
2022/03/01 09:14:41;;;;;;;21.88;8.68;;;;;;;;;;5079021;28;20467;-73
2022/03/01 09:17:07;;;;;;;19.27;8.50;;;;;;;;;;5073035;28;20048;-71
2022/03/01 09:19:33;;;;;;;25.17;7.13;;;;;;;;;;5081008;28;20091;-74
2022/03/01 09:21:58;;;;;;;25.92;8.13;;;;;;;;;;5077688;28;20652;-70
2022/03/01 09:24:24;;;;;;;17.67;7.88;;;;;;;;;;5080527;28;21041;-73
2022/03/01 09:26:50;;;;;;;19.98;8.02;;;;;;;;;;5074296;28;20133;-72
2022/03/01 09:29:16;;;;;;;21.83;7.38;;;;;;;;;;5084291;28;20057;-72
2022/03/01 09:31:42;;;;;;;18.20;6.93;;;;;;;;;;5062583;28;20446;-73
2022/03/01 09:34:08;;;;;;;22.90;7.60;;;;;;;;;;5081373;28;20051;-72
2022/03/01 09:36:33;;;;;;;23.75;7.53;;;;;;;;;;5068667;28;20043;-72
2022/03/01 09:38:59;;;;;;;30.00;7.85;;;;;;;;;;5079382;28;20066;-73
2022/03/01 09:41:26;;;;;;;17.00;6.35;;;;;;;;;;5061583;28;20312;-72
2022/03/01 09:43:54;;;;;;;20.02;6.53;;;;;;;;;;5079484;28;20407;-73
2022/03/01 09:46:20;;;;;;;13.05;5.90;;;;;;;;;;5070477;28;21710;-73
2022/03/01 09:48:46;;;;;;;16.08;5.88;;;;;;;;;;5074482;28;20431;-73
2022/03/01 09:51:13;;;;;;;14.23;6.07;;;;;;;;;;5058176;28;20055;-74
2022/03/01 09:53:42;;;;;;;19.50;6.00;;;;;;;;;;5056924;28;20144;-74
2022/03/01 09:56:09;;;;;;;12.32;6.22;;;;;;;;;;5057570;28;20062;-74
2022/03/01 09:58:36;;;;;;;17.83;5.95;;;;;;;;;;5074902;28;21262;-73
2022/03/01 10:01:02;;;;;;;15.27;6.00;;;;;;;;;;5080732;28;20386;-71
2022/03/01 10:03:29;;;;;;;13.27;6.10;;;;;;;;;;5062186;28;20143;-72
2022/03/01 10:06:08;;;;;;;16.25;6.00;;;;;;;;;;5077867;28;20081;-72
2022/03/01 10:08:34;;;;;;;18.55;5.18;;;;;;;;;;5079075;28;20083;-71
2022/03/01 10:11:00;;;;;;;12.90;5.07;;;;;;;;;;5064383;28;20139;-72
2022/03/01 10:13:29;;;;;;;15.77;5.15;;;;;;;;;;5081405;28;20055;-73
2022/03/01 10:16:05;;;;;;;22.73;5.22;;;;;;;;;;5080690;28;20063;-72
2022/03/01 10:18:37;;;;;;;18.55;5.50;;;;;;;;;;5077205;28;20172;-75
2022/03/01 10:21:07;;;;;;;11.55;5.18;;;;;;;;;;5080972;28;20106;-72
2022/03/01 10:23:33;;;;;;;15.45;5.97;;;;;;;;;;5083515;28;20055;-71
2022/03/01 10:26:16;;;;;;;11.68;5.32;;;;;;;;;;5079953;28;20054;-75
2022/03/01 10:28:43;;;;;;;14.05;5.15;;;;;;;;;;5079493;28;20043;-75
2022/03/01 10:31:15;;;;;;;17.63;5.25;;;;;;;;;;5084909;28;20158;-76
2022/03/01 10:34:05;;;;;;;15.73;5.68;;;;;;;;;;5066209;28;20761;-77
2022/03/01 10:36:49;;;;;;;9.57;4.85;;;;;;;;;;5071816;28;20043;-75
2022/03/01 10:39:35;;;;;;;14.00;4.30;;;;;;;;;;5065099;28;20264;-75
2022/03/01 10:42:03;;;;;;;15.63;4.70;;;;;;;;;;5081801;28;20365;-73
2022/03/01 10:44:30;;;;;;;10.32;4.40;;;;;;;;;;5080617;28;20075;-73
2022/03/01 10:46:59;;;;;;;12.38;4.47;;;;;;;;;;5069425;28;20047;-75
2022/03/01 10:49:34;;;;;;;17.10;5.00;;;;;;;;;;5085459;28;20060;-72
2022/03/01 10:52:04;;;;;;;10.77;4.35;;;;;;;;;;5084298;28;20055;-74
2022/03/01 10:54:32;;;;;;;15.05;4.93;;;;;;;;;;5083941;28;20067;-73
2022/03/01 10:56:59;;;;;;;9.65;4.50;;;;;;;;;;5075365;28;20052;-74
2022/03/01 10:59:27;;;;;;;16.98;4.30;;;;;;;;;;5084896;28;20059;-76
2022/03/01 11:01:54;;;;;;;12.07;4.38;;;;;;;;;;5084490;28;20056;-75
2022/03/01 11:04:25;;;;;;;17.83;4.75;;;;;;;;;;5084990;28;20048;-73
2022/03/01 11:06:56;;;;;;;19.45;4.43;;;;;;;;;;5074150;28;20062;-76
2022/03/01 11:09:27;;;;;;;11.15;4.15;;;;;;;;;;5086902;28;20120;-76
2022/03/01 11:11:54;;;;;;;14.15;4.20;;;;;;;;;;5084158;28;20639;-74
2022/03/01 11:14:47;;;;;;;15.32;4.05;;;;;;;;;;5083106;28;20142;-74
2022/03/01 11:17:35;;;;;;;9.93;3.42;;;;;;;;;;5076405;28;20059;-74
2022/03/01 11:20:06;;;;;;;14.60;4.20;;;;;;;;;;5082755;28;20158;-70
2022/03/01 11:22:42;;;;;;;20.23;5.75;;;;;;;;;;5083663;28;20065;-73
2022/03/01 11:25:24;;;;;;;20.58;7.20;;;;;;;;;;5065221;28;20154;-73
2022/03/01 11:27:52;;;;;;;19.10;7.07;;;;;;;;;;5076347;28;20074;-75
2022/03/01 11:30:27;;;;;;;19.15;6.25;;;;;;;;;;5086212;28;20050;-78
2022/03/01 11:32:57;;;;;;;14.38;5.57;;;;;;;;;;5085322;28;20043;-74
2022/03/01 11:35:26;;;;;;;12.73;6.53;;;;;;;;;;5083205;28;20244;-76
2022/03/01 11:38:02;;;;;;;16.33;6.03;;;;;;;;;;5075039;28;20140;-72
2022/03/01 11:40:32;;;;;;;15.75;6.22;;;;;;;;;;5067190;28;20047;-72
2022/03/01 11:43:14;;;;;;;14.07;6.47;;;;;;;;;;5084964;28;20052;-71
2022/03/01 11:45:52;;;;;;;20.88;6.88;;;;;;;;;;5083599;28;20059;-75
2022/03/01 11:48:21;;;;;;;16.50;5.63;;;;;;;;;;5079606;28;20106;-73
2022/03/01 11:50:55;;;;;;;16.58;5.80;;;;;;;;;;5085312;28;20569;-75
2022/03/01 11:53:24;;;;;;;16.75;5.60;;;;;;;;;;5083347;28;20440;-77
2022/03/01 11:55:53;;;;;;;15.60;6.07;;;;;;;;;;5082370;28;20054;-73
2022/03/01 11:58:20;;;;;;;16.17;6.32;;;;;;;;;;5078312;28;20047;-74
2022/03/01 12:00:49;;;;;;;19.05;6.95;;;;;;;;;;5084516;28;20427;-74
2022/03/01 12:03:24;;;;;;;13.45;6.05;;;;;;;;;;5084762;28;20059;-75
2022/03/01 12:05:51;;;;;;;16.60;6.60;;;;;;;;;;5081725;28;20048;-72
2022/03/01 12:08:19;;;;;;;16.77;6.90;;;;;;;;;;5058429;28;20457;-74
2022/03/01 12:10:57;;;;;;;15.07;6.55;;;;;;;;;;5086547;28;20040;-74
2022/03/01 12:14:00;;;;;;;15.15;6.85;;;;;;;;;;5084832;28;20051;-74
2022/03/01 12:16:28;;;;;;;16.55;7.07;;;;;;;;;;5045217;28;20681;-72
2022/03/01 12:19:19;;;;;;;19.17;7.00;;;;;;;;;;5083388;28;20086;-71
2022/03/01 12:21:53;;;;;;;18.20;6.70;;;;;;;;;;5084325;28;20052;-75
2022/03/01 12:24:23;;;;;;;17.58;6.82;;;;;;;;;;5083434;28;20409;-74
2022/03/01 12:27:00;;;;;;;16.88;6.25;;;;;;;;;;5075990;28;20055;-74
2022/03/01 12:29:29;;;;;;;11.15;6.15;;;;;;;;;;5085524;28;20052;-74
2022/03/01 12:32:05;;;;;;;12.02;6.50;;;;;;;;;;5083954;28;20039;-73
2022/03/01 12:34:33;;;;;;;16.95;6.18;;;;;;;;;;5066491;28;20214;-73
2022/03/01 12:37:08;;;;;;;11.50;5.90;;;;;;;;;;5075231;28;20055;-77
2022/03/01 12:39:34;;;;;;;22.73;5.40;;;;;;;;;;5085847;28;20051;-75
2022/03/01 12:42:01;;;;;;;10.15;4.60;;;;;;;;;;5085570;28;20067;-74
2022/03/01 12:44:31;;;;;;;10.27;4.28;;;;;;;;;;5086316;28;20039;-72
2022/03/01 12:46:59;;;;;;;12.23;4.57;;;;;;;;;;5056827;28;20101;-71
2022/03/01 12:49:25;;;;;;;16.52;4.80;;;;;;;;;;5086369;28;20521;-74
2022/03/01 12:51:54;;;;;;;12.82;4.95;;;;;;;;;;5066807;28;20035;-73
2022/03/01 12:54:26;;;;;;;11.95;4.70;;;;;;;;;;5084930;28;20044;-76
2022/03/01 12:56:57;;;;;;;15.27;5.20;;;;;;;;;;5073105;28;20051;-74
2022/03/01 12:59:29;;;;;;;13.60;5.13;;;;;;;;;;5085482;28;20404;-73
2022/03/01 13:01:57;;;;;;;14.93;5.60;;;;;;;;;;5084432;28;20144;-73
2022/03/01 13:04:26;;;;;;;10.77;4.63;;;;;;;;;;5084625;28;20070;-71
2022/03/01 13:06:52;;;;;;;11.55;4.22;;;;;;;;;;5073705;28;20515;-77
2022/03/01 13:09:18;;;;;;;10.68;4.25;;;;;;;;;;5086274;28;20096;-75
2022/03/01 13:11:46;;;;;;;10.80;4.47;;;;;;;;;;5087370;28;20047;-78
2022/03/01 13:14:16;;;;;;;13.25;4.78;;;;;;;;;;5085847;28;20096;-75
2022/03/01 13:16:51;;;;;;;13.82;4.68;;;;;;;;;;5074773;28;21030;-73
2022/03/01 13:19:21;;;;;;;12.65;4.22;;;;;;;;;;5086387;28;20048;-75
2022/03/01 13:21:53;;;;;;;10.10;3.63;;;;;;;;;;5083801;28;20242;-75
2022/03/01 13:24:26;;;;;;;12.25;3.75;;;;;;;;;;5082904;28;20047;-73
2022/03/01 13:26:54;;;;;;;14.10;3.40;;;;;;;;;;5073557;28;20344;-75
2022/03/01 13:29:26;;;;;;;8.75;3.25;;;;;;;;;;5085555;28;20424;-79
2022/03/01 13:32:10;;;;;;;11.85;2.75;;;;;;;;;;5080988;28;20116;-78
2022/03/01 13:34:39;;;;;;;8.30;3.00;;;;;;;;;;5081593;28;20501;-74
2022/03/01 13:37:10;;;;;;;10.85;2.72;;;;;;;;;;5074625;28;20442;-76
2022/03/01 13:39:37;;;;;;;11.88;2.85;;;;;;;;;;5082454;28;20077;-76
2022/03/01 13:42:05;;;;;;;8.35;2.50;;;;;;;;;;5083238;28;20283;-78
2022/03/01 13:44:34;;;;;;;8.02;3.08;;;;;;;;;;5081829;28;20473;-77
2022/03/01 13:47:11;;;;;;;5.55;2.40;;;;;;;;;;5072343;28;20063;-73
2022/03/01 13:49:41;;;;;;;10.02;2.55;;;;;;;;;;5080233;28;20513;-73
2022/03/01 13:52:31;;;;;;;11.23;2.90;;;;;;;;;;5080622;28;20158;-74
2022/03/01 13:55:07;;;;;;;7.78;2.67;;;;;;;;;;5076126;28;20044;-72
2022/03/01 13:57:41;;;;;;;10.90;3.80;;;;;;;;;;5072062;28;20044;-76
2022/03/01 14:00:09;;;;;;;10.15;3.10;;;;;;;;;;5083125;28;20300;-75
2022/03/01 14:02:35;;;;;;;8.48;2.97;;;;;;;;;;5080792;28;20099;-74
2022/03/01 14:05:07;;;;;;;8.98;2.92;;;;;;;;;;5078942;28;20083;-75
2022/03/01 14:07:33;;;;;;;8.18;2.60;;;;;;;;;;5054931;28;20572;-76
2022/03/01 14:10:00;;;;;;;10.57;2.53;;;;;;;;;;5081318;28;20059;-74
2022/03/01 14:12:38;;;;;;;10.18;2.70;;;;;;;;;;5079012;28;20048;-73
2022/03/01 14:15:06;;;;;;;9.52;2.70;;;;;;;;;;5081798;28;20083;-74
2022/03/01 14:17:33;;;;;;;9.57;2.40;;;;;;;;;;5072556;28;20055;-75
2022/03/01 14:20:00;;;;;;;11.30;2.75;;;;;;;;;;5079657;28;20487;-78
2022/03/01 14:22:27;;;;;;;13.30;2.97;;;;;;;;;;5081174;28;20130;-75
2022/03/01 14:24:58;;;;;;;10.80;3.13;;;;;;;;;;5085244;28;20059;-75
2022/03/01 14:27:25;;;;;;;6.30;2.05;;;;;;;;;;5076976;28;20039;-72
2022/03/01 14:29:52;;;;;;;11.52;2.65;;;;;;;;;;5086717;28;20047;-76
2022/03/01 14:32:18;;;;;;;12.40;2.72;;;;;;;;;;5088638;28;20039;-73
2022/03/01 14:34:44;;;;;;;9.95;2.33;;;;;;;;;;5081208;28;20046;-71